Time;durP1;ratioP1;P1;durP2;ratioP2;P2;SDS_P1;SDS_P2;PMS_P1;PMS_P2;Temp;Humidity;BMP_temperature;BMP_pressure;BME280_temperature;BME280_humidity;BME280_pressure;Samples;Min_cycle;Max_cycle;Signal;HPM_P1;HPM_P2
2023/12/28 00:02:16;;;;;;;56.08;2.60;;;;;;;;;;5063510;28;20250;-69
2023/12/28 00:04:43;;;;;;;56.17;2.90;;;;;;;;;;5062659;28;20205;-71
2023/12/28 00:07:10;;;;;;;56.10;3.10;;;;;;;;;;5062791;28;20209;-70
2023/12/28 00:09:39;;;;;;;56.90;4.20;;;;;;;;;;5060731;28;20211;-71
2023/12/28 00:12:06;;;;;;;55.95;2.90;;;;;;;;;;5060012;28;20220;-71
2023/12/28 00:14:33;;;;;;;56.40;3.50;;;;;;;;;;5063434;28;20261;-71
2023/12/28 00:17:00;;;;;;;56.20;2.90;;;;;;;;;;5063805;28;20290;-71
2023/12/28 00:19:27;;;;;;;56.20;2.75;;;;;;;;;;5062989;28;20218;-71
2023/12/28 00:21:55;;;;;;;56.08;2.90;;;;;;;;;;5063465;28;20251;-69
2023/12/28 00:24:22;;;;;;;55.97;3.10;;;;;;;;;;5062952;28;20222;-71
2023/12/28 00:26:50;;;;;;;56.22;2.85;;;;;;;;;;5064921;28;20307;-70
2023/12/28 00:29:17;;;;;;;56.00;3.05;;;;;;;;;;5063370;28;20208;-71
2023/12/28 00:31:45;;;;;;;55.88;2.78;;;;;;;;;;5061597;28;20222;-70
2023/12/28 00:34:13;;;;;;;55.95;2.95;;;;;;;;;;5061876;28;20214;-71
2023/12/28 00:36:40;;;;;;;55.88;2.80;;;;;;;;;;5062191;28;20318;-71
2023/12/28 00:39:08;;;;;;;56.00;2.80;;;;;;;;;;5061573;28;20276;-70
2023/12/28 00:41:35;;;;;;;56.10;2.90;;;;;;;;;;5061913;28;20233;-70
2023/12/28 00:44:05;;;;;;;56.15;3.05;;;;;;;;;;5061796;28;20301;-71
2023/12/28 00:46:32;;;;;;;56.20;2.90;;;;;;;;;;5061432;28;20208;-71
2023/12/28 00:48:59;;;;;;;56.47;3.47;;;;;;;;;;5061610;28;20694;-70
2023/12/28 00:51:26;;;;;;;56.20;2.70;;;;;;;;;;5061906;28;20218;-71
2023/12/28 00:53:53;;;;;;;56.10;3.30;;;;;;;;;;5058833;28;20313;-70
2023/12/28 00:56:21;;;;;;;56.03;2.60;;;;;;;;;;5061974;28;20287;-70
2023/12/28 00:58:48;;;;;;;56.00;3.00;;;;;;;;;;5062483;28;20207;-71
2023/12/28 01:01:17;;;;;;;55.90;2.80;;;;;;;;;;5062394;28;20290;-70
2023/12/28 01:03:44;;;;;;;55.90;2.83;;;;;;;;;;5061778;28;20227;-70
2023/12/28 01:06:11;;;;;;;56.00;2.85;;;;;;;;;;5061743;28;20211;-71
2023/12/28 01:08:38;;;;;;;56.10;2.67;;;;;;;;;;5062128;28;20585;-71
2023/12/28 01:11:05;;;;;;;55.95;2.63;;;;;;;;;;5061364;28;20290;-71
2023/12/28 01:13:32;;;;;;;55.80;2.60;;;;;;;;;;5061598;28;20297;-71
2023/12/28 01:16:00;;;;;;;56.00;2.80;;;;;;;;;;5060644;28;20263;-69
2023/12/28 01:18:28;;;;;;;55.90;2.80;;;;;;;;;;5061682;28;20230;-71
2023/12/28 01:20:55;;;;;;;55.95;2.78;;;;;;;;;;5061834;28;20203;-71
2023/12/28 01:23:22;;;;;;;56.00;3.00;;;;;;;;;;5061359;28;20234;-69
2023/12/28 01:25:49;;;;;;;56.03;2.95;;;;;;;;;;5061819;28;20209;-71
2023/12/28 01:28:16;;;;;;;56.10;2.70;;;;;;;;;;5061254;28;20218;-71
2023/12/28 01:30:44;;;;;;;56.10;3.05;;;;;;;;;;5061862;28;20769;-71
2023/12/28 01:33:11;;;;;;;55.88;2.83;;;;;;;;;;5061371;28;20227;-70
2023/12/28 01:35:39;;;;;;;56.10;2.90;;;;;;;;;;5061518;28;20227;-71
2023/12/28 01:38:06;;;;;;;56.17;3.25;;;;;;;;;;5061594;28;20302;-71
2023/12/28 01:40:34;;;;;;;55.78;2.60;;;;;;;;;;5060936;28;20217;-71
2023/12/28 01:43:01;;;;;;;56.17;2.88;;;;;;;;;;5060811;28;20433;-71
2023/12/28 01:45:28;;;;;;;55.97;2.70;;;;;;;;;;5061943;28;20595;-69
2023/12/28 01:47:55;;;;;;;55.88;2.70;;;;;;;;;;5060919;28;20267;-71
2023/12/28 01:50:23;;;;;;;55.97;2.70;;;;;;;;;;5061916;28;20233;-69
2023/12/28 01:52:51;;;;;;;55.97;2.70;;;;;;;;;;5057573;28;20286;-71
2023/12/28 01:55:20;;;;;;;56.38;3.42;;;;;;;;;;5054879;28;20249;-71
2023/12/28 01:57:47;;;;;;;56.03;3.15;;;;;;;;;;5041065;28;20210;-71
2023/12/28 02:00:15;;;;;;;56.08;3.08;;;;;;;;;;5037825;28;20205;-71
2023/12/28 02:02:42;;;;;;;56.10;3.13;;;;;;;;;;5037985;28;20231;-71
2023/12/28 02:05:10;;;;;;;55.97;2.83;;;;;;;;;;5036944;28;20614;-71
2023/12/28 02:07:38;;;;;;;55.90;2.90;;;;;;;;;;5050982;28;20302;-71
2023/12/28 02:10:07;;;;;;;56.10;3.10;;;;;;;;;;5037451;28;20290;-71
2023/12/28 02:12:34;;;;;;;55.97;2.90;;;;;;;;;;5040616;28;20239;-68
2023/12/28 02:15:01;;;;;;;56.05;2.90;;;;;;;;;;5040882;28;20276;-71
2023/12/28 02:20:32;;;;;;;56.10;3.15;;;;;;;;;;5055568;28;20828;-70
2023/12/28 02:23:00;;;;;;;55.97;2.90;;;;;;;;;;5060131;28;20595;-71
2023/12/28 02:25:27;;;;;;;56.30;3.28;;;;;;;;;;5060557;28;20218;-70
2023/12/28 02:27:54;;;;;;;55.92;2.80;;;;;;;;;;5059152;28;20591;-71
2023/12/28 02:30:22;;;;;;;56.08;3.20;;;;;;;;;;5058971;28;20204;-71
2023/12/28 02:32:54;;;;;;;55.88;2.80;;;;;;;;;;5059659;28;20238;-70
2023/12/28 02:35:25;;;;;;;56.25;3.20;;;;;;;;;;5060524;28;20226;-69
2023/12/28 02:37:53;;;;;;;56.10;2.90;;;;;;;;;;5060303;28;20258;-71
2023/12/28 02:40:21;;;;;;;56.28;3.28;;;;;;;;;;5060325;28;20206;-70
2023/12/28 02:42:49;;;;;;;56.47;3.03;;;;;;;;;;5056019;28;20239;-71
2023/12/28 02:45:16;;;;;;;56.20;3.13;;;;;;;;;;5057131;28;20214;-71
2023/12/28 02:47:44;;;;;;;56.15;2.80;;;;;;;;;;5060596;28;20674;-70
2023/12/28 02:50:11;;;;;;;56.10;2.80;;;;;;;;;;5060228;28;20208;-71
2023/12/28 02:52:38;;;;;;;55.97;2.75;;;;;;;;;;5059635;28;20237;-71
2023/12/28 02:55:06;;;;;;;56.15;2.97;;;;;;;;;;5061068;28;20198;-71
2023/12/28 02:57:37;;;;;;;56.10;2.65;;;;;;;;;;5063455;28;20210;-70
2023/12/28 03:00:07;;;;;;;55.80;2.85;;;;;;;;;;5062860;28;20211;-71
2023/12/28 03:02:34;;;;;;;55.78;2.60;;;;;;;;;;5063964;28;20643;-71
2023/12/28 03:05:01;;;;;;;56.10;3.10;;;;;;;;;;5063505;28;20217;-71
2023/12/28 03:07:28;;;;;;;56.00;2.92;;;;;;;;;;5063312;28;20214;-72
2023/12/28 03:09:55;;;;;;;56.05;3.25;;;;;;;;;;5063075;28;20204;-70
2023/12/28 03:12:23;;;;;;;56.00;2.90;;;;;;;;;;5061991;28;20229;-72
2023/12/28 03:14:50;;;;;;;55.78;2.50;;;;;;;;;;5062602;28;20271;-71
2023/12/28 03:17:18;;;;;;;56.00;2.90;;;;;;;;;;5062969;28;20223;-71
2023/12/28 03:19:45;;;;;;;56.10;2.80;;;;;;;;;;5062694;28;20208;-71
2023/12/28 03:22:12;;;;;;;56.47;2.67;;;;;;;;;;5063428;28;20230;-72
2023/12/28 03:24:40;;;;;;;56.05;3.05;;;;;;;;;;5062949;28;20213;-70
2023/12/28 03:27:07;;;;;;;56.20;2.67;;;;;;;;;;5054785;28;20293;-71
2023/12/28 03:29:34;;;;;;;56.30;2.95;;;;;;;;;;5062698;28;20653;-70
2023/12/28 03:32:02;;;;;;;55.90;2.92;;;;;;;;;;5063434;28;20226;-71
2023/12/28 03:34:30;;;;;;;56.40;3.65;;;;;;;;;;5063008;28;20726;-71
2023/12/28 03:36:57;;;;;;;55.80;2.42;;;;;;;;;;5062897;28;20299;-72
2023/12/28 03:39:25;;;;;;;56.10;2.90;;;;;;;;;;5063147;28;20203;-72
2023/12/28 03:41:52;;;;;;;56.10;2.95;;;;;;;;;;5067103;28;20237;-72
2023/12/28 03:44:20;;;;;;;56.08;2.88;;;;;;;;;;5066740;28;20214;-72
2023/12/28 03:46:48;;;;;;;56.08;2.70;;;;;;;;;;5066741;28;20215;-70
2023/12/28 03:49:16;;;;;;;55.90;2.80;;;;;;;;;;5067434;28;20209;-71
2023/12/28 03:51:45;;;;;;;55.88;2.50;;;;;;;;;;5063627;28;20207;-71
2023/12/28 03:54:12;;;;;;;56.00;2.80;;;;;;;;;;5063479;28;20230;-72
2023/12/28 03:56:40;;;;;;;56.15;2.95;;;;;;;;;;5062304;28;20314;-67
2023/12/28 03:59:07;;;;;;;55.88;2.85;;;;;;;;;;5060700;28;20207;-70
2023/12/28 04:01:34;;;;;;;55.70;2.35;;;;;;;;;;5044163;28;20228;-71
2023/12/28 04:04:02;;;;;;;55.80;2.80;;;;;;;;;;5049162;28;20224;-70
2023/12/28 04:06:29;;;;;;;55.80;2.63;;;;;;;;;;5051654;28;20223;-69
2023/12/28 04:08:57;;;;;;;56.05;3.22;;;;;;;;;;5043775;28;20744;-70
2023/12/28 04:11:24;;;;;;;55.72;2.63;;;;;;;;;;5050757;28;20291;-70
2023/12/28 04:13:51;;;;;;;55.90;2.80;;;;;;;;;;5044692;28;20319;-70
2023/12/28 04:16:18;;;;;;;55.67;2.50;;;;;;;;;;5056201;28;20287;-70
2023/12/28 04:18:46;;;;;;;55.97;2.90;;;;;;;;;;5052898;28;20305;-70
2023/12/28 04:21:13;;;;;;;55.67;2.45;;;;;;;;;;5044395;28;20295;-69
2023/12/28 04:23:41;;;;;;;55.97;2.50;;;;;;;;;;5046031;28;20711;-67
2023/12/28 04:26:09;;;;;;;56.00;2.90;;;;;;;;;;5051562;28;20263;-70
2023/12/28 04:28:37;;;;;;;55.90;2.85;;;;;;;;;;5046262;28;20533;-71
2023/12/28 04:31:04;;;;;;;56.00;2.95;;;;;;;;;;5042272;28;20204;-71
2023/12/28 04:33:32;;;;;;;56.30;3.38;;;;;;;;;;5042234;28;20232;-71
2023/12/28 04:35:59;;;;;;;56.00;2.50;;;;;;;;;;5042471;28;20236;-71
2023/12/28 04:38:26;;;;;;;55.90;2.50;;;;;;;;;;5042663;28;20664;-71
2023/12/28 04:40:53;;;;;;;56.58;3.30;;;;;;;;;;5046552;28;20649;-71
2023/12/28 04:43:23;;;;;;;55.58;2.50;;;;;;;;;;5048353;28;20702;-71
2023/12/28 04:45:50;;;;;;;55.97;2.85;;;;;;;;;;5042191;28;20208;-70
2023/12/28 04:48:20;;;;;;;56.17;2.78;;;;;;;;;;5041684;28;20272;-70
2023/12/28 04:50:47;;;;;;;55.85;2.47;;;;;;;;;;5042413;28;20218;-69
2023/12/28 04:53:15;;;;;;;55.73;2.97;;;;;;;;;;5053423;28;20670;-71
2023/12/28 04:55:42;;;;;;;58.22;3.25;;;;;;;;;;5041903;28;20460;-71
2023/12/28 04:58:09;;;;;;;55.88;2.72;;;;;;;;;;5053089;28;20202;-71
2023/12/28 05:00:37;;;;;;;55.70;2.50;;;;;;;;;;5061438;28;20208;-70
2023/12/28 05:03:04;;;;;;;55.77;2.60;;;;;;;;;;5061557;28;20231;-71
2023/12/28 05:05:32;;;;;;;55.90;2.90;;;;;;;;;;5061846;28;20553;-71
2023/12/28 05:07:59;;;;;;;55.97;2.85;;;;;;;;;;5061372;28;20214;-71
2023/12/28 05:10:27;;;;;;;55.80;2.87;;;;;;;;;;5060780;28;20579;-69
2023/12/28 05:12:54;;;;;;;55.77;2.70;;;;;;;;;;5060112;28;20488;-71
2023/12/28 05:15:21;;;;;;;55.70;2.80;;;;;;;;;;5060173;28;20450;-71
2023/12/28 05:17:50;;;;;;;55.78;2.60;;;;;;;;;;5057194;28;20496;-71
2023/12/28 05:20:17;;;;;;;55.90;2.90;;;;;;;;;;5061627;28;20285;-71
2023/12/28 05:22:45;;;;;;;55.80;2.40;;;;;;;;;;5062413;28;20285;-68
2023/12/28 05:25:12;;;;;;;55.88;2.20;;;;;;;;;;5061766;28;20458;-72
2023/12/28 05:27:39;;;;;;;55.77;2.60;;;;;;;;;;5062115;28;20207;-71
2023/12/28 05:30:07;;;;;;;55.70;2.80;;;;;;;;;;5061251;28;20449;-71
2023/12/28 05:32:34;;;;;;;55.85;2.53;;;;;;;;;;5060442;28;20483;-71
2023/12/28 05:35:03;;;;;;;55.80;2.60;;;;;;;;;;5060638;28;20218;-71
2023/12/28 05:37:30;;;;;;;55.80;2.30;;;;;;;;;;5060615;28;20253;-71
2023/12/28 05:39:58;;;;;;;55.73;2.90;;;;;;;;;;5060015;28;20499;-71
2023/12/28 05:42:25;;;;;;;55.60;2.57;;;;;;;;;;5059918;28;20474;-71
2023/12/28 05:44:52;;;;;;;55.78;2.60;;;;;;;;;;5060804;28;20561;-71
2023/12/28 05:47:19;;;;;;;55.78;2.40;;;;;;;;;;5059503;28;20262;-71
2023/12/28 05:49:46;;;;;;;55.80;2.70;;;;;;;;;;5058426;28;20326;-71
2023/12/28 05:52:18;;;;;;;55.90;2.40;;;;;;;;;;5056948;28;20552;-71
2023/12/28 05:54:45;;;;;;;55.97;2.50;;;;;;;;;;5057136;28;20481;-69
2023/12/28 05:57:12;;;;;;;55.67;2.20;;;;;;;;;;5056968;28;20219;-72
2023/12/28 05:59:40;;;;;;;55.58;2.40;;;;;;;;;;5056544;28;20204;-72
2023/12/28 06:02:08;;;;;;;55.73;2.80;;;;;;;;;;5056387;28;20223;-71
2023/12/28 06:04:35;;;;;;;55.90;2.50;;;;;;;;;;5059560;28;21024;-70
2023/12/28 06:07:02;;;;;;;55.70;2.20;;;;;;;;;;5048645;28;20456;-71
2023/12/28 06:09:30;;;;;;;55.70;2.50;;;;;;;;;;5040593;28;20447;-70
2023/12/28 06:11:57;;;;;;;55.60;2.70;;;;;;;;;;5046225;28;20550;-70
2023/12/28 06:14:25;;;;;;;55.80;2.70;;;;;;;;;;5047276;28;20872;-69
2023/12/28 06:16:52;;;;;;;55.90;2.60;;;;;;;;;;5041505;28;20558;-72
2023/12/28 06:19:19;;;;;;;55.70;2.40;;;;;;;;;;5041563;28;20455;-71
2023/12/28 06:21:46;;;;;;;55.47;2.20;;;;;;;;;;5040472;28;20531;-71
2023/12/28 06:24:13;;;;;;;56.30;2.50;;;;;;;;;;5053220;28;20843;-71
2023/12/28 06:26:42;;;;;;;55.50;2.03;;;;;;;;;;5061264;28;20450;-71
2023/12/28 06:29:09;;;;;;;55.67;2.43;;;;;;;;;;5060832;28;20450;-71
2023/12/28 06:31:37;;;;;;;55.57;2.30;;;;;;;;;;5065477;28;20529;-72
2023/12/28 06:34:04;;;;;;;55.67;2.30;;;;;;;;;;5063685;28;20470;-72
2023/12/28 06:36:31;;;;;;;55.50;2.20;;;;;;;;;;5064720;28;20529;-72
2023/12/28 06:38:58;;;;;;;55.70;2.50;;;;;;;;;;5063805;28;20522;-72
2023/12/28 06:41:26;;;;;;;55.80;2.57;;;;;;;;;;5063428;28;20456;-71
2023/12/28 06:43:54;;;;;;;55.57;2.23;;;;;;;;;;5063630;28;20474;-72
2023/12/28 06:46:21;;;;;;;55.83;2.47;;;;;;;;;;5063725;28;20496;-70
2023/12/28 06:48:48;;;;;;;55.37;2.30;;;;;;;;;;5064175;28;20462;-69
2023/12/28 06:51:19;;;;;;;55.67;2.50;;;;;;;;;;5063953;28;20488;-71
2023/12/28 06:53:46;;;;;;;55.43;2.07;;;;;;;;;;5064356;28;20473;-71
2023/12/28 06:56:13;;;;;;;55.53;2.27;;;;;;;;;;5063104;28;20451;-70
2023/12/28 06:58:40;;;;;;;55.67;2.40;;;;;;;;;;5064007;28;21100;-69
2023/12/28 07:01:09;;;;;;;55.70;2.13;;;;;;;;;;5063915;28;20458;-71
2023/12/28 07:03:36;;;;;;;55.57;2.10;;;;;;;;;;5064073;28;20474;-71
2023/12/28 07:06:04;;;;;;;56.73;2.40;;;;;;;;;;5063762;28;20458;-70
2023/12/28 07:08:31;;;;;;;56.00;3.00;;;;;;;;;;5063765;28;20480;-70
2023/12/28 07:10:58;;;;;;;55.60;2.00;;;;;;;;;;5063722;28;20467;-71
2023/12/28 07:13:25;;;;;;;56.20;4.07;;;;;;;;;;5063658;28;20492;-71
2023/12/28 07:15:53;;;;;;;55.57;2.67;;;;;;;;;;5063184;28;20454;-71
2023/12/28 07:18:21;;;;;;;55.60;2.20;;;;;;;;;;5063071;28;20483;-71
2023/12/28 07:20:49;;;;;;;55.60;2.10;;;;;;;;;;5063491;28;20469;-71
2023/12/28 07:23:17;;;;;;;55.90;2.70;;;;;;;;;;5063175;28;20470;-70
2023/12/28 07:25:45;;;;;;;55.67;2.20;;;;;;;;;;5063156;28;20494;-71
2023/12/28 07:28:12;;;;;;;57.67;2.80;;;;;;;;;;5063572;28;20454;-71
2023/12/28 07:30:39;;;;;;;55.87;2.50;;;;;;;;;;5063751;28;20447;-71
2023/12/28 07:33:06;;;;;;;55.37;2.10;;;;;;;;;;5061004;28;20544;-72
2023/12/28 07:35:35;;;;;;;55.63;2.30;;;;;;;;;;5059439;28;20533;-72
2023/12/28 07:38:02;;;;;;;55.60;2.33;;;;;;;;;;5061961;28;20497;-72
2023/12/28 07:40:29;;;;;;;55.43;2.20;;;;;;;;;;5062188;28;20496;-71
2023/12/28 07:42:56;;;;;;;55.57;2.53;;;;;;;;;;5059858;28;20473;-73
2023/12/28 07:45:24;;;;;;;55.50;2.00;;;;;;;;;;5060224;28;20464;-73
2023/12/28 07:47:51;;;;;;;55.60;2.10;;;;;;;;;;5048519;28;20456;-72
2023/12/28 07:53:24;;;;;;;55.63;1.90;;;;;;;;;;5060264;28;20778;-73
2023/12/28 07:55:51;;;;;;;55.17;2.10;;;;;;;;;;5068005;28;20443;-69
2023/12/28 07:58:18;;;;;;;55.53;2.30;;;;;;;;;;5061899;28;20489;-72
2023/12/28 08:00:45;;;;;;;55.40;2.10;;;;;;;;;;5064886;28;20463;-71
2023/12/28 08:03:15;;;;;;;55.47;2.17;;;;;;;;;;5060558;28;20478;-72
2023/12/28 08:05:42;;;;;;;55.50;1.83;;;;;;;;;;5061765;28;20516;-72
2023/12/28 08:08:09;;;;;;;55.57;2.43;;;;;;;;;;5063447;28;20482;-71
2023/12/28 08:10:37;;;;;;;55.27;2.00;;;;;;;;;;5062590;28;20455;-72
2023/12/28 08:13:05;;;;;;;55.47;2.00;;;;;;;;;;5059963;28;20474;-72
2023/12/28 08:15:32;;;;;;;55.77;2.10;;;;;;;;;;5060646;28;20448;-72
2023/12/28 08:17:59;;;;;;;55.77;2.10;;;;;;;;;;5060701;28;20490;-72
2023/12/28 08:20:26;;;;;;;57.70;2.80;;;;;;;;;;5061600;28;20816;-71
2023/12/28 08:22:53;;;;;;;55.20;2.20;;;;;;;;;;5061440;28;20554;-71
2023/12/28 08:25:22;;;;;;;55.77;2.37;;;;;;;;;;5060704;28;20462;-71
2023/12/28 08:27:50;;;;;;;55.67;2.00;;;;;;;;;;5060674;28;20527;-72
2023/12/28 08:30:18;;;;;;;55.60;2.23;;;;;;;;;;5060914;28;20541;-71
2023/12/28 08:32:45;;;;;;;55.57;2.10;;;;;;;;;;5060508;28;20480;-72
2023/12/28 08:35:12;;;;;;;57.20;2.57;;;;;;;;;;5060434;28;20546;-72
2023/12/28 08:37:39;;;;;;;55.53;1.97;;;;;;;;;;5060866;28;20493;-72
2023/12/28 08:40:07;;;;;;;56.10;2.30;;;;;;;;;;5060261;28;20464;-70
2023/12/28 08:42:34;;;;;;;55.37;2.00;;;;;;;;;;5060831;28;20475;-71
2023/12/28 08:45:02;;;;;;;55.60;2.07;;;;;;;;;;5060526;28;20460;-72
2023/12/28 08:47:29;;;;;;;55.40;2.27;;;;;;;;;;5060638;28;20804;-72
2023/12/28 08:49:57;;;;;;;55.63;2.60;;;;;;;;;;5060546;28;20487;-71
2023/12/28 08:52:24;;;;;;;55.40;2.10;;;;;;;;;;5060036;28;20786;-72
2023/12/28 08:54:51;;;;;;;55.17;2.10;;;;;;;;;;5060328;28;20816;-71
2023/12/28 08:57:18;;;;;;;55.23;1.87;;;;;;;;;;5060406;28;20486;-72
2023/12/28 08:59:45;;;;;;;55.93;2.50;;;;;;;;;;5060203;28;20534;-72
2023/12/28 09:02:13;;;;;;;55.67;2.13;;;;;;;;;;5060565;28;20476;-72
2023/12/28 09:04:40;;;;;;;56.00;2.77;;;;;;;;;;5060728;28;20440;-71
2023/12/28 09:07:07;;;;;;;55.87;2.60;;;;;;;;;;5060519;28;20458;-72
2023/12/28 09:09:35;;;;;;;55.60;2.03;;;;;;;;;;5061692;28;20457;-72
2023/12/28 09:12:02;;;;;;;55.60;2.10;;;;;;;;;;5060344;28;20821;-72
2023/12/28 09:14:29;;;;;;;55.37;2.20;;;;;;;;;;5059336;28;20441;-72
2023/12/28 09:16:57;;;;;;;56.67;3.47;;;;;;;;;;5060441;28;20815;-72
2023/12/28 09:19:25;;;;;;;55.80;1.90;;;;;;;;;;5059347;28;20483;-72
2023/12/28 09:21:52;;;;;;;55.50;1.83;;;;;;;;;;5059238;28;20459;-72
2023/12/28 09:24:19;;;;;;;55.60;2.50;;;;;;;;;;5061142;28;20460;-72
2023/12/28 09:26:46;;;;;;;55.80;2.20;;;;;;;;;;5060933;28;20514;-72
2023/12/28 09:29:13;;;;;;;55.40;2.10;;;;;;;;;;5060530;28;20469;-71
2023/12/28 09:31:41;;;;;;;55.57;2.13;;;;;;;;;;5062136;28;20451;-70
2023/12/28 09:34:08;;;;;;;55.90;2.20;;;;;;;;;;5061487;28;20938;-72
2023/12/28 09:36:37;;;;;;;56.30;2.30;;;;;;;;;;5061984;28;20483;-72
2023/12/28 09:39:06;;;;;;;55.87;2.07;;;;;;;;;;5063175;28;21082;-71
2023/12/28 09:41:35;;;;;;;55.77;2.20;;;;;;;;;;5063089;28;20457;-72
2023/12/28 09:44:05;;;;;;;55.07;1.70;;;;;;;;;;5061671;28;20530;-72
2023/12/28 09:46:32;;;;;;;55.90;2.40;;;;;;;;;;5061850;28;20450;-71
2023/12/28 09:49:00;;;;;;;55.70;2.00;;;;;;;;;;5060244;28;20451;-72
2023/12/28 09:51:27;;;;;;;55.17;1.83;;;;;;;;;;5061707;28;20456;-72
2023/12/28 09:53:56;;;;;;;55.87;1.90;;;;;;;;;;5060384;28;20480;-72
2023/12/28 09:56:23;;;;;;;56.50;2.57;;;;;;;;;;5060369;28;20469;-72
2023/12/28 09:58:52;;;;;;;55.43;1.90;;;;;;;;;;5059838;28;20491;-72
2023/12/28 10:01:19;;;;;;;55.77;1.90;;;;;;;;;;5058593;28;20815;-72
2023/12/28 10:03:46;;;;;;;55.80;2.27;;;;;;;;;;5058888;28;20472;-72
2023/12/28 10:06:15;;;;;;;55.33;1.93;;;;;;;;;;5063386;28;20453;-71
2023/12/28 10:08:47;;;;;;;55.23;2.30;;;;;;;;;;5062763;28;20455;-72
2023/12/28 10:11:16;;;;;;;55.47;2.10;;;;;;;;;;5062410;28;20485;-71
2023/12/28 10:13:43;;;;;;;56.30;2.10;;;;;;;;;;5063088;28;20476;-72
2023/12/28 10:16:11;;;;;;;55.67;1.93;;;;;;;;;;5063136;28;20457;-72
2023/12/28 10:18:38;;;;;;;55.57;2.30;;;;;;;;;;5062688;28;21064;-72
2023/12/28 10:21:05;;;;;;;55.87;2.40;;;;;;;;;;5062665;28;20587;-72
2023/12/28 10:23:32;;;;;;;55.70;2.20;;;;;;;;;;5062547;28;20991;-72
2023/12/28 10:26:00;;;;;;;56.03;2.10;;;;;;;;;;5062554;28;20438;-70
2023/12/28 10:28:28;;;;;;;55.80;2.20;;;;;;;;;;5063123;28;20542;-72
2023/12/28 10:30:58;;;;;;;56.20;2.10;;;;;;;;;;5062211;28;20486;-72
2023/12/28 10:33:25;;;;;;;55.70;2.20;;;;;;;;;;5061830;28;20813;-72
2023/12/28 10:35:53;;;;;;;57.37;2.40;;;;;;;;;;5061627;28;20455;-72
2023/12/28 10:38:20;;;;;;;55.90;2.10;;;;;;;;;;5061651;28;20485;-71
2023/12/28 10:40:49;;;;;;;56.00;2.27;;;;;;;;;;5061768;28;20502;-72
2023/12/28 10:43:17;;;;;;;56.60;2.63;;;;;;;;;;5062720;28;20473;-72
2023/12/28 10:45:48;;;;;;;56.00;4.10;;;;;;;;;;5064172;28;20504;-71
2023/12/28 10:48:15;;;;;;;55.70;2.00;;;;;;;;;;5064087;28;20461;-70
2023/12/28 10:50:44;;;;;;;55.27;2.33;;;;;;;;;;5063892;28;20465;-70
2023/12/28 10:53:28;;;;;;;56.80;3.40;;;;;;;;;;5063141;28;20491;-72
2023/12/28 10:56:06;;;;;;;56.00;2.13;;;;;;;;;;5063961;28;20932;-72
2023/12/28 10:58:37;;;;;;;61.17;4.13;;;;;;;;;;5064458;28;20489;-72
2023/12/28 11:01:09;;;;;;;56.20;2.30;;;;;;;;;;5063402;28;20450;-72
2023/12/28 11:03:38;;;;;;;55.97;3.00;;;;;;;;;;5064401;28;20470;-69
2023/12/28 11:06:06;;;;;;;56.27;2.47;;;;;;;;;;5070818;28;20444;-69
2023/12/28 11:08:34;;;;;;;56.83;3.13;;;;;;;;;;5064155;28;20445;-70
2023/12/28 11:11:01;;;;;;;55.77;2.00;;;;;;;;;;5064178;28;20458;-67
2023/12/28 11:13:29;;;;;;;55.40;1.70;;;;;;;;;;5063929;28;20527;-70
2023/12/28 11:15:57;;;;;;;55.70;2.10;;;;;;;;;;5064245;28;20465;-71
2023/12/28 11:18:27;;;;;;;55.33;2.03;;;;;;;;;;5063481;28;20494;-71
2023/12/28 11:20:55;;;;;;;55.23;1.77;;;;;;;;;;5063734;28;20454;-70
2023/12/28 11:23:22;;;;;;;55.47;2.00;;;;;;;;;;5063421;28;20474;-71
2023/12/28 11:25:50;;;;;;;55.77;1.90;;;;;;;;;;5063931;28;20597;-71
2023/12/28 11:28:17;;;;;;;54.97;1.60;;;;;;;;;;5064284;28;20454;-70
2023/12/28 11:30:44;;;;;;;56.73;2.70;;;;;;;;;;5063516;28;20456;-71
2023/12/28 11:33:11;;;;;;;55.03;1.90;;;;;;;;;;5063882;28;20840;-70
2023/12/28 11:35:41;;;;;;;55.60;2.10;;;;;;;;;;5063662;28;20451;-71
2023/12/28 11:38:10;;;;;;;54.60;1.60;;;;;;;;;;5064511;28;20488;-71
2023/12/28 11:40:42;;;;;;;55.57;2.07;;;;;;;;;;5063870;28;20503;-71
2023/12/28 11:43:18;;;;;;;55.97;2.07;;;;;;;;;;5063584;28;20478;-71
2023/12/28 11:45:49;;;;;;;59.70;2.30;;;;;;;;;;5064394;28;20447;-70
2023/12/28 11:48:24;;;;;;;56.83;2.03;;;;;;;;;;5064071;28;20506;-71
2023/12/28 11:50:52;;;;;;;55.60;2.10;;;;;;;;;;5064349;28;20495;-71
2023/12/28 11:53:20;;;;;;;55.50;2.47;;;;;;;;;;5061366;28;20479;-70
2023/12/28 11:55:47;;;;;;;56.93;3.03;;;;;;;;;;5062210;28;20450;-71
2023/12/28 11:58:14;;;;;;;55.47;2.27;;;;;;;;;;5062435;28;20497;-70
2023/12/28 12:00:41;;;;;;;55.80;2.30;;;;;;;;;;5062602;28;20763;-71
2023/12/28 12:03:11;;;;;;;55.10;1.80;;;;;;;;;;5061139;28;20621;-71
2023/12/28 12:05:38;;;;;;;55.27;2.20;;;;;;;;;;5061858;28;20451;-71
2023/12/28 12:08:08;;;;;;;55.70;2.70;;;;;;;;;;5061336;28;20469;-70
2023/12/28 12:10:35;;;;;;;55.80;2.40;;;;;;;;;;5061497;28;20522;-71
2023/12/28 12:13:03;;;;;;;54.77;1.90;;;;;;;;;;5061189;28;20588;-71
2023/12/28 12:15:30;;;;;;;54.50;2.10;;;;;;;;;;5061941;28;20508;-71
2023/12/28 12:17:58;;;;;;;55.57;2.33;;;;;;;;;;5061418;28;20449;-70
2023/12/28 12:20:26;;;;;;;56.50;1.97;;;;;;;;;;5061912;28;20511;-71
2023/12/28 12:22:53;;;;;;;55.33;2.00;;;;;;;;;;5061463;28;20477;-71
2023/12/28 12:25:21;;;;;;;54.97;1.60;;;;;;;;;;5061654;28;20818;-70
2023/12/28 12:27:48;;;;;;;55.67;2.53;;;;;;;;;;5061346;28;20450;-71
2023/12/28 12:30:16;;;;;;;55.07;1.83;;;;;;;;;;5061081;28;20449;-71
2023/12/28 12:32:43;;;;;;;55.70;2.40;;;;;;;;;;5062401;28;20487;-71
2023/12/28 12:35:11;;;;;;;55.60;2.17;;;;;;;;;;5062653;28;20447;-71
2023/12/28 12:37:38;;;;;;;55.00;2.37;;;;;;;;;;5062349;28;20499;-70
2023/12/28 12:40:06;;;;;;;55.50;2.20;;;;;;;;;;5062581;28;20496;-71
2023/12/28 12:42:34;;;;;;;55.57;2.10;;;;;;;;;;5062126;28;20472;-71
2023/12/28 12:45:02;;;;;;;56.20;2.47;;;;;;;;;;5062137;28;20453;-71
2023/12/28 12:47:34;;;;;;;55.60;2.33;;;;;;;;;;5062100;28;20449;-71
2023/12/28 12:50:01;;;;;;;56.40;2.60;;;;;;;;;;5062234;28;20446;-72
2023/12/28 12:52:28;;;;;;;55.40;2.20;;;;;;;;;;5053983;28;20706;-71
2023/12/28 12:54:56;;;;;;;56.10;2.43;;;;;;;;;;5061643;28;20848;-71
2023/12/28 12:57:23;;;;;;;55.90;1.90;;;;;;;;;;5061434;28;20464;-70
2023/12/28 12:59:51;;;;;;;57.17;2.10;;;;;;;;;;5061209;28;20559;-72
2023/12/28 13:02:18;;;;;;;56.30;2.70;;;;;;;;;;5061338;28;20484;-69
2023/12/28 13:04:46;;;;;;;56.00;2.60;;;;;;;;;;5060594;28;20460;-71
2023/12/28 13:07:13;;;;;;;55.90;2.30;;;;;;;;;;5061593;28;20489;-70
2023/12/28 13:09:40;;;;;;;55.23;2.53;;;;;;;;;;5062021;28;20454;-71
2023/12/28 13:12:07;;;;;;;56.30;2.87;;;;;;;;;;5062119;28;20480;-70
2023/12/28 13:14:35;;;;;;;56.77;2.10;;;;;;;;;;5062982;28;20446;-71
2023/12/28 13:17:03;;;;;;;55.67;1.70;;;;;;;;;;5063086;28;20538;-71
2023/12/28 13:19:30;;;;;;;55.67;2.30;;;;;;;;;;5062972;28;21017;-71
2023/12/28 13:21:57;;;;;;;55.90;1.80;;;;;;;;;;5062690;28;20542;-71
2023/12/28 13:24:24;;;;;;;55.80;2.20;;;;;;;;;;5062204;28;20450;-68
2023/12/28 13:26:51;;;;;;;55.27;1.80;;;;;;;;;;5062156;28;20486;-71
2023/12/28 13:29:18;;;;;;;55.50;1.60;;;;;;;;;;5062202;28;20968;-71
2023/12/28 13:31:49;;;;;;;56.77;1.90;;;;;;;;;;5062049;28;20450;-71
2023/12/28 13:34:19;;;;;;;55.17;1.70;;;;;;;;;;5061686;28;20470;-71
2023/12/28 13:36:46;;;;;;;55.70;2.00;;;;;;;;;;5062482;28;20457;-71
2023/12/28 13:39:14;;;;;;;59.83;2.67;;;;;;;;;;5061317;28;20495;-72
2023/12/28 13:41:41;;;;;;;56.67;1.97;;;;;;;;;;5063922;28;20512;-70
2023/12/28 13:44:12;;;;;;;55.90;2.20;;;;;;;;;;5066542;28;20546;-69
2023/12/28 13:46:39;;;;;;;56.20;2.60;;;;;;;;;;5068393;28;20924;-71
2023/12/28 13:49:07;;;;;;;55.57;2.27;;;;;;;;;;5068334;28;20473;-71
2023/12/28 13:51:35;;;;;;;55.90;2.33;;;;;;;;;;5069073;28;20544;-71
2023/12/28 13:54:03;;;;;;;55.80;2.30;;;;;;;;;;5067918;28;20526;-72
2023/12/28 13:56:30;;;;;;;56.07;2.17;;;;;;;;;;5068061;28;20446;-69
2023/12/28 13:58:57;;;;;;;56.30;1.90;;;;;;;;;;5067870;28;20485;-71
2023/12/28 14:01:24;;;;;;;57.93;3.30;;;;;;;;;;5070043;28;20600;-70
2023/12/28 14:03:52;;;;;;;56.17;2.50;;;;;;;;;;5070738;28;20527;-71
2023/12/28 14:06:20;;;;;;;56.07;2.13;;;;;;;;;;5070748;28;20439;-71
2023/12/28 14:08:48;;;;;;;55.80;2.40;;;;;;;;;;5070979;28;20458;-68
2023/12/28 14:11:15;;;;;;;55.37;2.20;;;;;;;;;;5069757;28;20545;-71
2023/12/28 14:13:42;;;;;;;55.50;2.30;;;;;;;;;;5068726;28;20467;-71
2023/12/28 14:16:09;;;;;;;55.70;2.43;;;;;;;;;;5068467;28;20466;-69
2023/12/28 14:18:39;;;;;;;55.87;2.30;;;;;;;;;;5067187;28;20485;-70
2023/12/28 14:21:07;;;;;;;55.70;1.90;;;;;;;;;;5065213;28;20469;-71
2023/12/28 14:23:34;;;;;;;55.07;2.00;;;;;;;;;;5064266;28;20534;-71
2023/12/28 14:26:04;;;;;;;55.20;2.03;;;;;;;;;;5064272;28;20450;-71
2023/12/28 14:28:33;;;;;;;55.90;2.30;;;;;;;;;;5064639;28;20511;-71
2023/12/28 14:31:01;;;;;;;55.90;2.10;;;;;;;;;;5064656;28;20458;-70
2023/12/28 14:33:28;;;;;;;55.07;2.00;;;;;;;;;;5065313;28;20565;-71
2023/12/28 14:35:56;;;;;;;55.90;1.93;;;;;;;;;;5065157;28;20453;-71
2023/12/28 14:38:23;;;;;;;56.20;2.20;;;;;;;;;;5064527;28;20448;-70
2023/12/28 14:40:51;;;;;;;56.00;2.50;;;;;;;;;;5063902;28;20538;-71